createdAt,value
2023-02-18T00:01:10.388Z,2.25
2023-02-18T00:03:38.331Z,2.27
2023-02-18T00:06:32.940Z,2.26
2023-02-18T00:09:02.629Z,2.39
2023-02-18T00:11:32.640Z,2.44
2023-02-18T00:14:02.152Z,2.47
2023-02-18T00:16:30.860Z,2.36
2023-02-18T00:19:03.665Z,2.39
2023-02-18T00:21:32.521Z,2.47
2023-02-18T00:23:59.519Z,2.40
2023-02-18T00:26:27.787Z,2.40
2023-02-18T00:28:54.914Z,2.35
2023-02-18T00:31:25.618Z,2.19
2023-02-18T00:33:53.156Z,2.17
2023-02-18T00:36:22.242Z,2.22
2023-02-18T00:38:52.255Z,2.02
2023-02-18T00:41:20.301Z,2.02
2023-02-18T00:43:47.647Z,2.03
2023-02-18T00:46:14.924Z,2.02
2023-02-18T00:48:41.975Z,2.01
2023-02-18T00:51:10.840Z,1.99
2023-02-18T00:53:38.426Z,1.93
2023-02-18T00:56:06.364Z,1.90
2023-02-18T00:58:34.797Z,1.92
2023-02-18T01:01:07.380Z,1.90
2023-02-18T01:03:35.555Z,1.76
2023-02-18T01:06:03.084Z,1.60
2023-02-18T01:08:30.212Z,1.63
2023-02-18T01:11:00.044Z,1.71
2023-02-18T01:13:27.825Z,1.68
2023-02-18T01:15:55.068Z,1.58
2023-02-18T01:18:22.520Z,1.64
2023-02-18T01:20:49.814Z,1.70
2023-02-18T01:23:17.245Z,1.70
2023-02-18T01:25:44.486Z,1.60
2023-02-18T01:28:13.569Z,1.46
2023-02-18T01:30:41.033Z,1.55
2023-02-18T01:33:08.812Z,1.51
2023-02-18T01:35:40.820Z,1.57
2023-02-18T01:38:08.748Z,1.38
2023-02-18T01:40:35.942Z,1.35
2023-02-18T01:43:03.400Z,1.26
2023-02-18T01:45:39.262Z,1.31
2023-02-18T01:48:08.924Z,1.30
2023-02-18T01:50:40.283Z,1.23
2023-02-18T01:53:08.027Z,1.17
2023-02-18T01:55:37.228Z,1.10
2023-02-18T01:58:07.328Z,1.00
2023-02-18T02:00:34.492Z,1.05
2023-02-18T02:03:01.782Z,0.97
2023-02-18T02:05:33.502Z,1.02
2023-02-18T02:08:02.209Z,1.02
2023-02-18T02:10:55.324Z,0.92
2023-02-18T02:13:50.626Z,0.86
2023-02-18T02:16:50.545Z,0.83
2023-02-18T02:19:26.358Z,0.88
2023-02-18T02:22:32.072Z,0.86
2023-02-18T02:25:26.730Z,0.70
2023-02-18T02:28:17.170Z,0.70
2023-02-18T02:34:43.047Z,0.40
2023-02-18T02:37:26.269Z,0.52
2023-02-18T02:40:02.189Z,0.56
2023-02-18T02:42:41.377Z,0.42
2023-02-18T02:45:33.787Z,0.32
2023-02-18T02:48:06.064Z,0.25
2023-02-18T02:50:52.022Z,0.33
2023-02-18T02:53:26.766Z,0.33
2023-02-18T02:55:56.356Z,0.48
2023-02-18T02:58:24.952Z,0.47
2023-02-18T03:01:18.013Z,0.45
2023-02-18T03:04:19.830Z,0.52
2023-02-18T03:06:58.093Z,0.37
2023-02-18T03:09:34.273Z,0.44
2023-02-18T03:12:35.107Z,0.30
2023-02-18T03:15:23.567Z,0.24
2023-02-18T03:18:17.509Z,0.15
2023-02-18T03:21:01.649Z,0.37
2023-02-18T03:23:37.490Z,0.28
2023-02-18T03:26:06.628Z,0.16
2023-02-18T03:28:35.277Z,0.10
2023-02-18T03:31:08.801Z,0.22
2023-02-18T03:33:40.696Z,0.21
2023-02-18T03:36:09.652Z,0.11
2023-02-18T03:38:46.060Z,0.16
2023-02-18T03:41:13.355Z,0.21
2023-02-18T03:43:46.156Z,0.27
2023-02-18T03:46:13.227Z,0.29
2023-02-18T03:48:40.252Z,0.09
2023-02-18T03:51:07.228Z,-0.06
2023-02-18T03:53:34.294Z,-0.23
2023-02-18T03:56:01.232Z,-0.08
2023-02-18T03:58:28.356Z,-0.07
2023-02-18T04:00:55.410Z,-0.03
2023-02-18T04:03:22.452Z,-0.12
2023-02-18T04:05:49.667Z,-0.07
2023-02-18T04:08:16.808Z,-0.17
2023-02-18T04:10:43.957Z,-0.11
2023-02-18T04:13:11.008Z,-0.17
2023-02-18T04:15:38.018Z,-0.25
2023-02-18T04:18:05.190Z,-0.14
2023-02-18T04:20:32.396Z,-0.27
2023-02-18T04:22:59.391Z,-0.13
2023-02-18T04:25:27.880Z,-0.21
2023-02-18T04:27:54.872Z,-0.26
2023-02-18T04:30:22.152Z,-0.04
2023-02-18T04:32:49.208Z,0.03
2023-02-18T04:35:16.386Z,-0.06
2023-02-18T04:37:43.369Z,-0.09
2023-02-18T04:40:11.225Z,-0.15
2023-02-18T04:42:38.293Z,-0.24
2023-02-18T04:45:05.771Z,-0.17
2023-02-18T04:47:32.819Z,-0.31
2023-02-18T04:49:59.921Z,-0.35
2023-02-18T04:52:26.904Z,-0.34
2023-02-18T04:54:53.916Z,-0.32
2023-02-18T04:57:20.939Z,-0.43
2023-02-18T04:59:47.925Z,-0.51
2023-02-18T05:02:14.946Z,-0.53
2023-02-18T05:04:41.958Z,-0.61
2023-02-18T05:07:08.950Z,-0.58
2023-02-18T05:09:36.048Z,-0.52
2023-02-18T05:12:03.095Z,-0.47
2023-02-18T05:14:30.101Z,-0.56
2023-02-18T05:16:57.141Z,-0.49
2023-02-18T05:19:24.159Z,-0.57
2023-02-18T05:21:51.157Z,-0.66
2023-02-18T05:24:18.164Z,-0.61
2023-02-18T05:26:45.194Z,-0.55
2023-02-18T05:29:12.206Z,-0.59
2023-02-18T05:31:39.471Z,-0.47
2023-02-18T05:34:06.478Z,-0.63
2023-02-18T05:36:33.484Z,-0.57
2023-02-18T05:39:00.584Z,-0.91
2023-02-18T05:41:27.624Z,-0.73
2023-02-18T05:44:13.163Z,-0.62
2023-02-18T05:46:40.230Z,-0.50
2023-02-18T05:49:07.274Z,-0.50
2023-02-18T05:51:34.285Z,-0.49
2023-02-18T05:54:01.300Z,-0.65
2023-02-18T05:56:28.344Z,-0.63
2023-02-18T05:58:55.391Z,-0.48
2023-02-18T06:01:22.391Z,-0.50
2023-02-18T06:03:49.460Z,-0.63
2023-02-18T06:06:16.604Z,-0.54
2023-02-18T06:08:43.546Z,-0.56
2023-02-18T06:11:10.539Z,-0.43
2023-02-18T06:13:37.564Z,-0.22
2023-02-18T06:16:05.762Z,-0.20
2023-02-18T06:18:32.852Z,-0.17
2023-02-18T06:21:00.825Z,-0.08
2023-02-18T06:23:27.995Z,-0.07
2023-02-18T06:25:55.284Z,0.13
2023-02-18T06:28:22.287Z,0.33
2023-02-18T06:30:50.236Z,0.35
2023-02-18T06:33:17.516Z,0.55
2023-02-18T06:35:54.439Z,0.75
2023-02-18T06:38:21.519Z,0.74
2023-02-18T06:40:48.607Z,0.85
2023-02-18T06:43:15.801Z,0.82
2023-02-18T06:45:42.814Z,0.91
2023-02-18T06:48:10.230Z,1.00
2023-02-18T06:50:37.332Z,0.90
2023-02-18T06:53:04.629Z,1.09
2023-02-18T06:55:31.783Z,1.19
2023-02-18T06:57:59.026Z,1.31
2023-02-18T07:00:26.151Z,1.43
2023-02-18T07:02:53.571Z,1.56
2023-02-18T07:05:21.501Z,1.72
2023-02-18T07:07:48.429Z,1.88
2023-02-18T07:10:15.565Z,2.16
2023-02-18T07:12:42.530Z,2.28
2023-02-18T07:15:09.987Z,2.35
2023-02-18T07:17:37.029Z,2.62
2023-02-18T07:20:05.274Z,2.74
2023-02-18T07:22:33.125Z,2.74
2023-02-18T07:25:00.161Z,2.85
2023-02-18T07:27:28.091Z,3.07
2023-02-18T07:29:55.571Z,3.14
2023-02-18T07:32:23.208Z,3.11
2023-02-18T07:34:52.587Z,3.17
2023-02-18T07:37:21.360Z,3.39
2023-02-18T07:39:48.714Z,2.92
2023-02-18T07:42:16.091Z,3.16
2023-02-18T07:44:44.609Z,3.31
2023-02-18T07:47:15.573Z,3.52
2023-02-18T07:49:42.736Z,3.50
2023-02-18T07:52:09.979Z,3.46
2023-02-18T07:54:36.993Z,3.60
2023-02-18T07:57:04.183Z,3.58
2023-02-18T07:59:31.229Z,3.80
2023-02-18T08:01:58.329Z,3.95
2023-02-18T08:04:25.341Z,3.81
2023-02-18T08:06:52.499Z,3.78
2023-02-18T08:09:19.542Z,3.84
2023-02-18T08:11:46.555Z,3.89
2023-02-18T08:14:13.614Z,3.99
2023-02-18T08:16:40.848Z,4.08
2023-02-18T08:19:08.287Z,4.14
2023-02-18T08:21:35.331Z,4.32
2023-02-18T08:24:02.527Z,4.51
2023-02-18T08:26:29.876Z,4.65
2023-02-18T08:28:57.003Z,4.69
2023-02-18T08:31:29.400Z,4.86
2023-02-18T08:33:57.940Z,5.20
2023-02-18T08:36:25.586Z,5.58
2023-02-18T08:38:52.684Z,5.58
2023-02-18T08:41:20.238Z,5.67
2023-02-18T08:43:48.129Z,5.52
2023-02-18T08:46:25.151Z,5.52
2023-02-18T08:49:03.250Z,5.38
2023-02-18T08:51:30.316Z,5.85
2023-02-18T08:53:57.552Z,6.01
2023-02-18T08:56:25.013Z,6.22
2023-02-18T08:58:52.662Z,6.54
2023-02-18T09:01:21.070Z,6.74
2023-02-18T09:03:49.129Z,6.90
2023-02-18T09:06:16.580Z,7.00
2023-02-18T09:08:44.004Z,6.83
2023-02-18T09:11:11.766Z,6.78
2023-02-18T09:13:39.579Z,7.04
2023-02-18T09:16:10.888Z,6.85
2023-02-18T09:18:38.090Z,7.16
2023-02-18T09:21:07.662Z,7.17
2023-02-18T09:23:34.871Z,7.22
2023-02-18T09:26:07.350Z,7.05
2023-02-18T09:28:35.658Z,7.32
2023-02-18T09:31:16.868Z,7.71
2023-02-18T09:34:12.454Z,8.01
2023-02-18T09:36:39.782Z,8.48
2023-02-18T09:39:07.132Z,8.25
2023-02-18T09:41:43.469Z,8.73
2023-02-18T09:44:20.842Z,8.81
2023-02-18T09:46:54.938Z,9.15
2023-02-18T09:49:28.034Z,9.27
2023-02-18T09:51:57.021Z,9.23
2023-02-18T09:54:24.582Z,9.37
2023-02-18T09:56:54.009Z,9.80
2023-02-18T09:59:23.770Z,10.24
2023-02-18T10:01:53.322Z,9.97
2023-02-18T10:04:37.363Z,10.40
2023-02-18T10:07:11.430Z,10.62
2023-02-18T10:09:42.037Z,11.03
2023-02-18T10:12:22.059Z,11.40
2023-02-18T10:14:56.122Z,11.54
2023-02-18T10:17:26.077Z,11.90
2023-02-18T10:19:55.111Z,12.08
2023-02-18T10:22:25.540Z,12.06
2023-02-18T10:24:58.886Z,12.18
2023-02-18T10:27:32.357Z,12.38
2023-02-18T10:30:23.100Z,12.62
2023-02-18T10:32:56.648Z,11.89
2023-02-18T10:35:45.557Z,12.33
2023-02-18T10:38:21.276Z,12.61
2023-02-18T10:40:50.863Z,12.52
2023-02-18T10:43:53.427Z,12.68
2023-02-18T10:46:29.516Z,12.60
2023-02-18T10:49:11.925Z,12.43
2023-02-18T10:51:48.809Z,12.70
2023-02-18T10:54:16.396Z,12.29
2023-02-18T10:56:51.167Z,12.23
2023-02-18T10:59:33.769Z,12.54
2023-02-18T11:02:04.293Z,12.81
2023-02-18T11:04:40.501Z,12.98
2023-02-18T11:07:14.788Z,13.07
2023-02-18T11:09:54.789Z,12.99
2023-02-18T11:12:47.862Z,13.46
2023-02-18T11:15:15.240Z,13.73
2023-02-18T11:17:44.490Z,13.75
2023-02-18T11:20:36.505Z,14.12
2023-02-18T11:23:06.289Z,14.36
2023-02-18T11:25:36.145Z,14.65
2023-02-18T11:28:27.332Z,15.14
2023-02-18T11:30:58.715Z,15.38
2023-02-18T11:33:32.096Z,15.94
2023-02-18T11:36:06.878Z,16.40
2023-02-18T11:38:50.171Z,16.17
2023-02-18T11:41:21.767Z,15.35
2023-02-18T11:43:53.592Z,15.14
2023-02-18T11:46:23.578Z,15.78
2023-02-18T11:48:52.002Z,15.26
2023-02-18T11:51:29.159Z,15.22
2023-02-18T11:54:30.325Z,15.12
2023-02-18T11:57:03.665Z,14.82
2023-02-18T11:59:37.375Z,15.54
2023-02-18T12:02:10.781Z,15.29
2023-02-18T12:04:46.383Z,15.69
2023-02-18T12:07:19.523Z,16.29
2023-02-18T12:09:59.514Z,16.22
2023-02-18T12:13:12.930Z,17.06
2023-02-18T12:15:46.041Z,17.24
2023-02-18T12:18:22.100Z,17.11
2023-02-18T12:21:07.477Z,17.77
2023-02-18T12:23:50.261Z,18.08
2023-02-18T12:26:33.159Z,18.63
2023-02-18T12:29:14.863Z,19.27
2023-02-18T12:31:55.301Z,19.63
2023-02-18T12:34:36.517Z,19.68
2023-02-18T12:37:15.175Z,19.48
2023-02-18T12:39:50.771Z,17.65
2023-02-18T12:42:29.682Z,17.83
2023-02-18T12:45:24.880Z,17.40
2023-02-18T12:48:19.333Z,16.88
2023-02-18T12:51:18.412Z,16.80
2023-02-18T12:53:45.354Z,17.25
2023-02-18T12:56:36.454Z,17.60
2023-02-18T12:59:21.784Z,17.99
2023-02-18T13:02:03.430Z,18.11
2023-02-18T13:04:39.421Z,18.12
2023-02-18T13:07:09.024Z,18.16
2023-02-18T13:09:58.066Z,18.27
2023-02-18T13:12:44.456Z,18.12
2023-02-18T13:15:42.310Z,18.18
2023-02-18T13:18:25.345Z,18.25
2023-02-18T13:21:02.547Z,18.40
2023-02-18T13:23:38.634Z,18.43
2023-02-18T13:26:08.130Z,18.51
2023-02-18T13:28:47.064Z,19.01
2023-02-18T13:31:44.714Z,19.55
2023-02-18T13:34:48.013Z,19.77
2023-02-18T13:37:20.731Z,19.44
2023-02-18T13:39:58.464Z,18.93
2023-02-18T13:42:34.176Z,19.02
2023-02-18T13:45:24.146Z,18.40
2023-02-18T13:47:52.149Z,18.19
2023-02-18T13:50:27.739Z,18.32
2023-02-18T13:53:00.998Z,18.41
2023-02-18T13:55:34.841Z,18.31
2023-02-18T13:58:02.171Z,18.34
2023-02-18T14:00:40.100Z,18.41
2023-02-18T14:03:42.452Z,18.12
2023-02-18T14:06:34.027Z,17.71
2023-02-18T14:09:13.331Z,18.06
2023-02-18T14:11:56.332Z,18.28
2023-02-18T14:14:26.286Z,18.50
2023-02-18T14:17:21.421Z,18.90
2023-02-18T14:20:01.128Z,18.88
2023-02-18T14:22:32.184Z,18.89
2023-02-18T14:25:14.014Z,19.17
2023-02-18T14:27:43.720Z,19.64
2023-02-18T14:30:28.578Z,19.73
2023-02-18T14:33:02.012Z,19.85
2023-02-18T14:35:56.861Z,19.75
2023-02-18T14:38:42.521Z,19.84
2023-02-18T14:41:18.325Z,19.95
2023-02-18T14:44:07.387Z,19.87
2023-02-18T14:47:19.370Z,19.65
2023-02-18T14:50:00.258Z,19.66
2023-02-18T14:52:31.020Z,19.58
2023-02-18T14:55:01.910Z,19.44
2023-02-18T14:57:41.224Z,19.33
2023-02-18T15:00:18.316Z,19.08
2023-02-18T15:02:48.348Z,18.67
2023-02-18T15:05:20.724Z,18.64
2023-02-18T15:08:04.756Z,18.50
2023-02-18T15:10:43.582Z,18.47
2023-02-18T15:13:31.892Z,18.12
2023-02-18T15:16:04.058Z,17.83
2023-02-18T15:18:39.060Z,17.54
2023-02-18T15:21:10.229Z,17.36
2023-02-18T15:23:41.027Z,16.80
2023-02-18T15:26:15.049Z,16.78
2023-02-18T15:28:53.124Z,16.60
2023-02-18T15:31:30.035Z,16.38
2023-02-18T15:33:57.740Z,16.28
2023-02-18T15:36:27.339Z,15.90
2023-02-18T15:38:57.352Z,15.63
2023-02-18T15:41:25.131Z,15.52
2023-02-18T15:44:04.747Z,15.29
2023-02-18T15:46:32.929Z,15.07
2023-02-18T15:49:01.440Z,14.88
2023-02-18T15:51:32.076Z,14.59
2023-02-18T15:54:03.151Z,14.40
2023-02-18T15:56:40.815Z,14.25
2023-02-18T15:59:28.607Z,14.09
2023-02-18T16:01:57.817Z,13.83
2023-02-18T16:04:33.927Z,13.70
2023-02-18T16:07:06.571Z,13.44
2023-02-18T16:09:35.548Z,13.22
2023-02-18T16:12:05.502Z,13.08
2023-02-18T16:14:48.161Z,12.95
2023-02-18T16:17:26.368Z,12.77
2023-02-18T16:20:07.142Z,12.63
2023-02-18T16:22:37.706Z,12.51
2023-02-18T16:25:17.676Z,12.41
2023-02-18T16:27:59.456Z,12.30
2023-02-18T16:30:29.928Z,12.17
2023-02-18T16:32:58.142Z,12.13
2023-02-18T16:35:32.754Z,12.11
2023-02-18T16:38:02.623Z,11.97
2023-02-18T16:40:38.686Z,12.04
2023-02-18T16:43:22.071Z,11.90
2023-02-18T16:45:52.265Z,11.77
2023-02-18T16:48:30.257Z,11.58
2023-02-18T16:51:00.993Z,11.49
2023-02-18T16:53:28.420Z,11.23
2023-02-18T16:55:56.193Z,11.16
2023-02-18T16:58:24.312Z,11.09
2023-02-18T17:00:53.226Z,10.96
2023-02-18T17:03:21.292Z,10.85
2023-02-18T17:05:48.704Z,10.81
2023-02-18T17:08:18.832Z,10.69
2023-02-18T17:10:48.630Z,10.60
2023-02-18T17:13:21.255Z,10.57
2023-02-18T17:15:51.245Z,10.38
2023-02-18T17:18:18.902Z,10.31
2023-02-18T17:20:49.577Z,10.23
2023-02-18T17:23:23.118Z,10.21
2023-02-18T17:25:52.472Z,10.25
2023-02-18T17:28:19.713Z,10.13
2023-02-18T17:30:52.150Z,10.15
2023-02-18T17:33:20.797Z,10.18
2023-02-18T17:35:48.382Z,10.14
2023-02-18T17:38:18.007Z,10.09
2023-02-18T17:40:45.790Z,10.07
2023-02-18T17:43:15.453Z,10.07
2023-02-18T17:45:55.137Z,10.05
2023-02-18T17:48:22.825Z,10.06
2023-02-18T17:50:50.513Z,10.13
2023-02-18T17:53:19.639Z,10.17
2023-02-18T17:55:47.961Z,10.14
2023-02-18T17:58:16.498Z,10.05
2023-02-18T18:00:51.450Z,10.19
2023-02-18T18:03:20.058Z,10.19
2023-02-18T18:05:49.556Z,10.21
2023-02-18T18:08:17.551Z,10.23
2023-02-18T18:10:52.750Z,10.16
2023-02-18T18:13:30.129Z,9.94
2023-02-18T18:15:58.026Z,10.06
2023-02-18T18:18:26.079Z,9.86
2023-02-18T18:20:57.513Z,9.76
2023-02-18T18:23:24.998Z,9.93
2023-02-18T18:25:54.567Z,9.87
2023-02-18T18:28:23.425Z,9.81
2023-02-18T18:30:52.975Z,9.73
2023-02-18T18:33:27.102Z,9.79
2023-02-18T18:35:56.281Z,9.74
2023-02-18T18:38:24.904Z,9.62
2023-02-18T18:40:53.844Z,9.56
2023-02-18T18:43:27.121Z,9.50
2023-02-18T18:45:56.317Z,9.40
2023-02-18T18:48:25.282Z,9.22
2023-02-18T18:50:53.889Z,9.26
2023-02-18T18:53:28.143Z,9.18
2023-02-18T18:55:58.527Z,9.07
2023-02-18T18:58:26.569Z,8.99
2023-02-18T19:00:59.537Z,8.84
2023-02-18T19:03:27.905Z,8.78
2023-02-18T19:05:55.961Z,8.61
2023-02-18T19:08:23.385Z,8.45
2023-02-18T19:10:53.435Z,8.36
2023-02-18T19:13:26.007Z,8.32
2023-02-18T19:16:19.399Z,8.32
2023-02-18T19:18:47.202Z,8.13
2023-02-18T19:21:14.547Z,8.18
2023-02-18T19:23:42.245Z,8.31
2023-02-18T19:26:10.092Z,8.27
2023-02-18T19:28:37.220Z,8.33
2023-02-18T19:31:10.114Z,8.45
2023-02-18T19:33:39.503Z,8.49
2023-02-18T19:36:09.437Z,8.48
2023-02-18T19:38:36.920Z,8.52
2023-02-18T19:41:14.740Z,8.50
2023-02-18T19:43:43.181Z,8.42
2023-02-18T19:46:12.463Z,8.44
2023-02-18T19:48:40.738Z,8.38
2023-02-18T19:51:08.751Z,8.32
2023-02-18T19:53:36.916Z,8.30
2023-02-18T19:56:07.593Z,8.27
2023-02-18T19:58:35.714Z,8.24
2023-02-18T20:01:03.423Z,8.23
2023-02-18T20:03:30.752Z,8.16
2023-02-18T20:05:58.067Z,8.11
2023-02-18T20:08:25.088Z,7.99
2023-02-18T20:10:59.244Z,7.93
2023-02-18T20:13:26.896Z,7.74
2023-02-18T20:15:54.026Z,7.59
2023-02-18T20:18:21.102Z,7.61
2023-02-18T20:20:51.286Z,7.61
2023-02-18T20:23:18.924Z,7.49
2023-02-18T20:25:47.842Z,7.03
2023-02-18T20:28:15.956Z,6.95
2023-02-18T20:30:43.280Z,7.04
2023-02-18T20:33:11.243Z,7.00
2023-02-18T20:35:38.426Z,7.00
2023-02-18T20:38:05.467Z,6.96
2023-02-18T20:40:32.966Z,6.67
2023-02-18T20:43:00.075Z,6.62
2023-02-18T20:45:27.234Z,6.59
2023-02-18T20:47:54.358Z,6.58
2023-02-18T20:50:22.080Z,6.63
2023-02-18T20:52:49.294Z,6.66
2023-02-18T20:55:16.654Z,6.38
2023-02-18T20:57:44.330Z,6.21
2023-02-18T21:00:13.295Z,6.15
2023-02-18T21:02:40.326Z,6.28
2023-02-18T21:05:08.105Z,6.32
2023-02-18T21:07:35.203Z,6.31
2023-02-18T21:10:04.369Z,6.22
2023-02-18T21:12:31.465Z,6.18
2023-02-18T21:14:59.019Z,6.26
2023-02-18T21:17:26.368Z,6.05
2023-02-18T21:19:53.452Z,6.11
2023-02-18T21:22:21.375Z,6.15
2023-02-18T21:24:51.753Z,6.18
2023-02-18T21:27:18.867Z,6.21
2023-02-18T21:29:46.110Z,6.13
2023-02-18T21:32:13.288Z,6.16
2023-02-18T21:34:41.557Z,5.94
2023-02-18T21:37:12.346Z,5.84
2023-02-18T21:39:39.563Z,5.86
2023-02-18T21:42:07.155Z,5.82
2023-02-18T21:44:42.390Z,5.95
2023-02-18T21:47:10.784Z,5.69
2023-02-18T21:49:38.154Z,5.67
2023-02-18T21:52:08.792Z,5.75
2023-02-18T21:54:44.944Z,5.73
2023-02-18T21:57:18.543Z,5.70
2023-02-18T21:59:46.474Z,5.80
2023-02-18T22:02:22.683Z,5.64
2023-02-18T22:04:51.697Z,5.67
2023-02-18T22:07:20.475Z,5.57
2023-02-18T22:09:49.576Z,5.57
2023-02-18T22:12:17.548Z,5.63
2023-02-18T22:14:45.325Z,5.64
2023-02-18T22:17:13.219Z,5.60
2023-02-18T22:19:41.929Z,5.51
2023-02-18T22:22:09.772Z,5.62
2023-02-18T22:24:37.409Z,5.66
2023-02-18T22:27:04.901Z,5.62
2023-02-18T22:29:32.571Z,5.46
2023-02-18T22:32:00.107Z,5.44
2023-02-18T22:34:27.377Z,5.32
2023-02-18T22:36:54.551Z,5.29
2023-02-18T22:39:21.817Z,5.37
2023-02-18T22:41:49.193Z,5.52
2023-02-18T22:44:17.786Z,5.55
2023-02-18T22:46:45.476Z,5.52
2023-02-18T22:49:13.554Z,5.34
2023-02-18T22:51:43.845Z,5.41
2023-02-18T22:54:16.760Z,5.58
2023-02-18T22:56:45.867Z,5.63
2023-02-18T22:59:15.821Z,5.63
2023-02-18T23:01:49.634Z,5.54
2023-02-18T23:04:19.154Z,5.60
2023-02-18T23:06:47.315Z,5.66
2023-02-18T23:09:17.755Z,5.64
2023-02-18T23:11:45.395Z,5.72
2023-02-18T23:14:19.278Z,5.55
2023-02-18T23:17:15.665Z,5.56
2023-02-18T23:19:53.326Z,5.48
2023-02-18T23:22:25.376Z,5.42
2023-02-18T23:24:52.646Z,5.33
2023-02-18T23:27:20.149Z,5.34
2023-02-18T23:29:48.120Z,5.11
2023-02-18T23:32:15.230Z,5.02
2023-02-18T23:34:42.748Z,5.05
2023-02-18T23:37:10.606Z,4.95
2023-02-18T23:39:38.149Z,4.85
2023-02-18T23:42:05.209Z,4.70
2023-02-18T23:44:32.935Z,4.56
2023-02-18T23:47:00.468Z,4.38
2023-02-18T23:49:29.042Z,4.42
2023-02-18T23:51:57.795Z,4.26
2023-02-18T23:54:26.307Z,4.19
2023-02-18T23:56:53.475Z,4.21
2023-02-18T23:59:21.177Z,4.23
